DLH25M EDDM-ESSA
Flight info
| Callsign | DLH25M |
|---|---|
| Flight time | 1h 50m |
| Altitude | 37000 |
| Route | AKINI1N AKINI Y104 MAMOR L132 AGNAV DCT SUPIL DCT KILNU DCT UNRIG DCT BODLA DCT DEMUR DCT ARMOD Z228 NILUG |
| Aircraft | A320/M-SDE3FGHIRWY/LB1 |
Departure
| Time | 2026-05-07 09:29 |
|---|---|
| Airport | Munich Airport (EDDM) |
Arrival
| Time | 2026-05-07 11:19 |
|---|---|
| Airport | Stockholm-Arlanda Airport (ESSA) |
| Time | Latitude | Longitude | Altitude | Speed | Heading |
|---|---|---|---|---|---|
| 2026-05-07 09:09 | 48.35583 | 11.79728 | 1474 ft | 0 kts | 83° |
| 2026-05-07 09:19 | 48.35580 | 11.79694 | 1474 ft | 4 kts | 81° |
| 2026-05-07 09:19 | 48.35575 | 11.79654 | 1479 ft | 4 kts | 77° |
| 2026-05-07 09:19 | 48.35568 | 11.79615 | 1471 ft | 4 kts | 68° |
| 2026-05-07 09:20 | 48.35555 | 11.79582 | 1476 ft | 4 kts | 33° |
| 2026-05-07 09:20 | 48.35542 | 11.79575 | 1476 ft | 1 kts | 353° |
| 2026-05-07 09:20 | 48.35539 | 11.79575 | 1477 ft | 0 kts | 353° |
| 2026-05-07 09:23 | 48.35553 | 11.79573 | 1478 ft | 8 kts | 353° |
| 2026-05-07 09:23 | 48.35653 | 11.79556 | 1478 ft | 21 kts | 353° |
| 2026-05-07 09:23 | 48.35797 | 11.79530 | 1478 ft | 20 kts | 353° |
| 2026-05-07 09:23 | 48.35943 | 11.79505 | 1485 ft | 22 kts | 353° |
| 2026-05-07 09:24 | 48.36074 | 11.79482 | 1480 ft | 19 kts | 354° |
| 2026-05-07 09:24 | 48.36199 | 11.79486 | 1482 ft | 17 kts | 35° |
| 2026-05-07 09:24 | 48.36227 | 11.79648 | 1482 ft | 15 kts | 84° |
| 2026-05-07 09:24 | 48.36240 | 11.79823 | 1479 ft | 19 kts | 83° |
| 2026-05-07 09:25 | 48.36258 | 11.80048 | 1485 ft | 23 kts | 83° |
| 2026-05-07 09:25 | 48.36275 | 11.80275 | 1485 ft | 21 kts | 83° |
| 2026-05-07 09:25 | 48.36292 | 11.80483 | 1480 ft | 19 kts | 84° |
| 2026-05-07 09:25 | 48.36306 | 11.80684 | 1485 ft | 21 kts | 83° |
| 2026-05-07 09:26 | 48.36326 | 11.80937 | 1480 ft | 24 kts | 83° |
| 2026-05-07 09:26 | 48.36345 | 11.81182 | 1485 ft | 23 kts | 83° |
| 2026-05-07 09:26 | 48.36363 | 11.81410 | 1485 ft | 21 kts | 83° |
| 2026-05-07 09:26 | 48.36379 | 11.81620 | 1475 ft | 19 kts | 83° |
| 2026-05-07 09:27 | 48.36394 | 11.81811 | 1478 ft | 18 kts | 83° |
| 2026-05-07 09:27 | 48.36408 | 11.81980 | 1485 ft | 15 kts | 49° |
| 2026-05-07 09:27 | 48.36640 | 11.81954 | 1485 ft | 19 kts | 324° |
| 2026-05-07 09:28 | 48.36665 | 11.81810 | 1476 ft | 0 kts | 264° |
| 2026-05-07 09:28 | 48.36665 | 11.81809 | 1476 ft | 0 kts | 264° |
| 2026-05-07 09:28 | 48.36660 | 11.81751 | 1478 ft | 25 kts | 263° |
| 2026-05-07 09:28 | 48.36609 | 11.81090 | 1480 ft | 98 kts | 263° |
| 2026-05-07 09:29 | 48.36507 | 11.79782 | 1476 ft | 151 kts | 263° |
| 2026-05-07 09:29 | 48.36374 | 11.78045 | 1777 ft | 174 kts | 264° |
| 2026-05-07 09:29 | 48.36234 | 11.76225 | 2564 ft | 175 kts | 264° |
| 2026-05-07 09:29 | 48.36087 | 11.74363 | 3115 ft | 189 kts | 263° |
| 2026-05-07 09:30 | 48.35924 | 11.72279 | 3619 ft | 208 kts | 263° |
| 2026-05-07 09:30 | 48.35790 | 11.70101 | 4516 ft | 212 kts | 271° |
| 2026-05-07 09:30 | 48.36149 | 11.67933 | 5410 ft | 219 kts | 295° |
| 2026-05-07 09:30 | 48.37151 | 11.66156 | 6281 ft | 231 kts | 320° |
| 2026-05-07 09:31 | 48.38661 | 11.65208 | 7101 ft | 243 kts | 343° |
| 2026-05-07 09:31 | 48.40391 | 11.64669 | 7572 ft | 266 kts | 344° |
| 2026-05-07 09:31 | 48.41619 | 11.64298 | 7967 ft | 276 kts | 344° |
| 2026-05-07 09:31 | 48.43527 | 11.63736 | 8800 ft | 283 kts | 346° |
| 2026-05-07 09:32 | 48.45524 | 11.63658 | 9683 ft | 294 kts | 4° |
| 2026-05-07 09:32 | 48.47520 | 11.64505 | 10509 ft | 304 kts | 22° |
| 2026-05-07 09:32 | 48.49309 | 11.66266 | 11349 ft | 312 kts | 41° |
| 2026-05-07 09:32 | 48.50710 | 11.68779 | 12191 ft | 316 kts | 53° |
| 2026-05-07 09:33 | 48.52013 | 11.71473 | 12999 ft | 320 kts | 53° |
| 2026-05-07 09:33 | 48.53328 | 11.74207 | 13809 ft | 324 kts | 53° |
| 2026-05-07 09:33 | 48.54657 | 11.76979 | 14480 ft | 329 kts | 54° |
| 2026-05-07 09:33 | 48.56011 | 11.79803 | 15161 ft | 334 kts | 54° |
| 2026-05-07 09:34 | 48.57382 | 11.82662 | 15876 ft | 338 kts | 54° |
| 2026-05-07 09:34 | 48.58769 | 11.85550 | 16593 ft | 342 kts | 54° |
| 2026-05-07 09:34 | 48.60175 | 11.88469 | 17306 ft | 345 kts | 54° |
| 2026-05-07 09:34 | 48.61596 | 11.91415 | 18009 ft | 349 kts | 54° |
| 2026-05-07 09:35 | 48.63032 | 11.94395 | 18663 ft | 352 kts | 54° |
| 2026-05-07 09:35 | 48.64477 | 11.97405 | 19274 ft | 356 kts | 55° |
| 2026-05-07 09:35 | 48.65935 | 12.00451 | 19890 ft | 359 kts | 55° |
| 2026-05-07 09:35 | 48.67407 | 12.03519 | 20488 ft | 362 kts | 55° |
| 2026-05-07 09:36 | 48.68957 | 12.06536 | 21106 ft | 366 kts | 48° |
| 2026-05-07 09:36 | 48.70851 | 12.09130 | 21711 ft | 369 kts | 36° |
| 2026-05-07 09:36 | 48.73064 | 12.11128 | 22307 ft | 372 kts | 24° |
| 2026-05-07 09:36 | 48.75437 | 12.12742 | 22892 ft | 376 kts | 24° |
| 2026-05-07 09:37 | 48.77861 | 12.14426 | 23060 ft | 391 kts | 24° |
| 2026-05-07 09:37 | 48.80372 | 12.16216 | 23211 ft | 406 kts | 25° |
| 2026-05-07 09:37 | 48.82961 | 12.18088 | 23431 ft | 417 kts | 25° |
| 2026-05-07 09:37 | 48.85593 | 12.20005 | 23825 ft | 422 kts | 25° |
| 2026-05-07 09:38 | 48.88253 | 12.21948 | 24240 ft | 426 kts | 26° |
| 2026-05-07 09:38 | 48.90937 | 12.23896 | 24656 ft | 429 kts | 25° |
| 2026-05-07 09:38 | 48.93648 | 12.25826 | 25074 ft | 432 kts | 25° |
| 2026-05-07 09:38 | 48.96389 | 12.27746 | 25471 ft | 435 kts | 25° |
| 2026-05-07 09:39 | 48.99154 | 12.29673 | 25864 ft | 439 kts | 25° |
| 2026-05-07 09:39 | 49.01938 | 12.31622 | 26266 ft | 442 kts | 25° |
| 2026-05-07 09:39 | 49.04738 | 12.33593 | 26660 ft | 445 kts | 25° |
| 2026-05-07 09:39 | 49.07558 | 12.35589 | 27042 ft | 448 kts | 25° |
| 2026-05-07 09:40 | 49.10391 | 12.37602 | 27436 ft | 451 kts | 26° |
| 2026-05-07 09:40 | 49.13247 | 12.39635 | 27814 ft | 454 kts | 26° |
| 2026-05-07 09:40 | 49.16123 | 12.41681 | 28191 ft | 457 kts | 26° |
| 2026-05-07 09:40 | 49.19018 | 12.43740 | 28556 ft | 461 kts | 25° |
| 2026-05-07 09:41 | 49.21932 | 12.45816 | 28918 ft | 464 kts | 25° |
| 2026-05-07 09:41 | 49.24872 | 12.47912 | 29270 ft | 467 kts | 25° |
| 2026-05-07 09:41 | 49.27830 | 12.50020 | 29624 ft | 471 kts | 25° |
| 2026-05-07 09:41 | 49.30767 | 12.52118 | 29983 ft | 473 kts | 25° |
| 2026-05-07 09:42 | 49.33872 | 12.54023 | 30296 ft | 476 kts | 17° |
| 2026-05-07 09:42 | 49.37088 | 12.55249 | 30593 ft | 478 kts | 11° |
| 2026-05-07 09:42 | 49.40306 | 12.56250 | 30859 ft | 480 kts | 11° |
| 2026-05-07 09:42 | 49.43588 | 12.57276 | 31140 ft | 482 kts | 11° |
| 2026-05-07 09:43 | 49.46883 | 12.58311 | 31419 ft | 484 kts | 11° |
| 2026-05-07 09:43 | 49.50189 | 12.59354 | 31737 ft | 485 kts | 11° |
| 2026-05-07 09:43 | 49.53495 | 12.60399 | 32105 ft | 485 kts | 11° |
| 2026-05-07 09:43 | 49.56800 | 12.61442 | 32471 ft | 485 kts | 10° |
| 2026-05-07 09:44 | 49.60115 | 12.62412 | 32837 ft | 485 kts | 8° |
| 2026-05-07 09:44 | 49.63438 | 12.63267 | 33220 ft | 484 kts | 7° |
| 2026-05-07 09:44 | 49.66767 | 12.64043 | 33607 ft | 483 kts | 6° |
| 2026-05-07 09:44 | 49.70093 | 12.64782 | 33993 ft | 483 kts | 6° |
| 2026-05-07 09:45 | 49.73413 | 12.65525 | 34332 ft | 482 kts | 6° |
| 2026-05-07 09:45 | 49.76726 | 12.66287 | 34687 ft | 480 kts | 7° |
| 2026-05-07 09:45 | 49.80022 | 12.67076 | 35030 ft | 479 kts | 7° |
| 2026-05-07 09:45 | 49.83306 | 12.67887 | 35358 ft | 477 kts | 7° |
| 2026-05-07 09:46 | 49.86580 | 12.68709 | 35688 ft | 476 kts | 7° |
| 2026-05-07 09:46 | 49.89843 | 12.69529 | 36016 ft | 474 kts | 7° |
| 2026-05-07 09:46 | 49.93094 | 12.70340 | 36319 ft | 473 kts | 7° |
| 2026-05-07 09:46 | 49.96335 | 12.71143 | 36639 ft | 471 kts | 7° |
| 2026-05-07 09:47 | 49.99568 | 12.71941 | 36897 ft | 470 kts | 7° |
| 2026-05-07 09:47 | 50.05938 | 12.73515 | 36948 ft | 464 kts | 7° |
| 2026-05-07 09:48 | 50.12308 | 12.75100 | 36947 ft | 463 kts | 7° |
| 2026-05-07 09:48 | 50.18672 | 12.76687 | 36945 ft | 463 kts | 7° |
| 2026-05-07 09:49 | 50.25035 | 12.78265 | 36946 ft | 463 kts | 7° |
| 2026-05-07 09:49 | 50.31401 | 12.79856 | 36947 ft | 463 kts | 7° |
| 2026-05-07 09:50 | 50.37663 | 12.82193 | 36945 ft | 465 kts | 21° |
| 2026-05-07 09:50 | 50.43337 | 12.87025 | 36934 ft | 465 kts | 31° |
| 2026-05-07 09:51 | 50.49047 | 12.91753 | 36931 ft | 464 kts | 19° |
| 2026-05-07 09:51 | 50.55215 | 12.94739 | 36926 ft | 464 kts | 15° |
| 2026-05-07 09:52 | 50.61402 | 12.97675 | 36939 ft | 464 kts | 16° |
| 2026-05-07 09:52 | 50.67551 | 13.00619 | 36931 ft | 465 kts | 16° |
| 2026-05-07 09:53 | 50.73777 | 13.03619 | 36940 ft | 465 kts | 16° |
| 2026-05-07 09:53 | 50.79926 | 13.06577 | 36945 ft | 465 kts | 16° |
| 2026-05-07 09:54 | 50.86121 | 13.09558 | 36954 ft | 465 kts | 16° |
| 2026-05-07 09:54 | 50.92357 | 13.12575 | 36956 ft | 465 kts | 16° |
| 2026-05-07 09:55 | 50.98504 | 13.15561 | 36956 ft | 465 kts | 16° |
| 2026-05-07 09:55 | 51.04692 | 13.18570 | 36962 ft | 466 kts | 16° |
| 2026-05-07 09:56 | 51.10888 | 13.21597 | 36960 ft | 466 kts | 16° |
| 2026-05-07 09:56 | 51.17085 | 13.24623 | 36971 ft | 466 kts | 16° |
| 2026-05-07 09:57 | 51.23284 | 13.27660 | 36971 ft | 466 kts | 16° |
| 2026-05-07 09:57 | 51.29475 | 13.30712 | 36974 ft | 466 kts | 16° |
| 2026-05-07 09:58 | 51.35667 | 13.33764 | 36989 ft | 465 kts | 16° |
| 2026-05-07 09:58 | 51.41848 | 13.36819 | 36989 ft | 465 kts | 16° |
| 2026-05-07 09:59 | 51.48018 | 13.39879 | 36991 ft | 464 kts | 16° |
| 2026-05-07 09:59 | 51.54184 | 13.42949 | 36996 ft | 464 kts | 16° |
| 2026-05-07 10:00 | 51.60345 | 13.46026 | 36995 ft | 464 kts | 16° |
| 2026-05-07 10:00 | 51.66510 | 13.49112 | 37003 ft | 464 kts | 17° |
| 2026-05-07 10:01 | 51.72674 | 13.52205 | 37010 ft | 464 kts | 17° |
| 2026-05-07 10:01 | 51.78830 | 13.55304 | 37009 ft | 463 kts | 17° |
| 2026-05-07 10:02 | 51.84986 | 13.58410 | 37004 ft | 464 kts | 17° |
| 2026-05-07 10:02 | 51.91125 | 13.61629 | 37003 ft | 464 kts | 18° |
| 2026-05-07 10:03 | 51.97213 | 13.65093 | 37013 ft | 464 kts | 19° |
| 2026-05-07 10:03 | 52.03298 | 13.68611 | 37005 ft | 464 kts | 19° |
| 2026-05-07 10:04 | 52.09392 | 13.72083 | 37008 ft | 464 kts | 19° |
| 2026-05-07 10:04 | 52.15499 | 13.75543 | 37013 ft | 465 kts | 19° |
| 2026-05-07 10:05 | 52.21610 | 13.78997 | 37017 ft | 465 kts | 19° |
| 2026-05-07 10:05 | 52.27729 | 13.82477 | 37012 ft | 466 kts | 19° |
| 2026-05-07 10:06 | 52.33851 | 13.85990 | 37010 ft | 467 kts | 19° |
| 2026-05-07 10:06 | 52.39981 | 13.89521 | 37016 ft | 467 kts | 19° |
| 2026-05-07 10:07 | 52.46113 | 13.93058 | 37013 ft | 468 kts | 19° |
| 2026-05-07 10:07 | 52.52253 | 13.96601 | 37005 ft | 468 kts | 19° |
| 2026-05-07 10:08 | 52.58400 | 14.00165 | 37003 ft | 468 kts | 19° |
| 2026-05-07 10:08 | 52.64550 | 14.03738 | 37004 ft | 469 kts | 19° |
| 2026-05-07 10:09 | 52.70700 | 14.07321 | 37008 ft | 469 kts | 19° |
| 2026-05-07 10:09 | 52.76813 | 14.10892 | 37015 ft | 469 kts | 19° |
| 2026-05-07 10:10 | 52.82966 | 14.14498 | 37015 ft | 469 kts | 19° |
| 2026-05-07 10:10 | 52.89111 | 14.18118 | 37020 ft | 469 kts | 19° |
| 2026-05-07 10:11 | 52.95253 | 14.21750 | 37027 ft | 469 kts | 19° |
| 2026-05-07 10:11 | 53.01395 | 14.25376 | 37029 ft | 468 kts | 19° |
| 2026-05-07 10:12 | 53.07535 | 14.29008 | 37030 ft | 468 kts | 19° |
| 2026-05-07 10:12 | 53.13672 | 14.32658 | 37035 ft | 468 kts | 19° |
| 2026-05-07 10:13 | 53.19802 | 14.36325 | 37040 ft | 468 kts | 19° |
| 2026-05-07 10:13 | 53.25921 | 14.40005 | 37040 ft | 467 kts | 19° |
| 2026-05-07 10:14 | 53.31987 | 14.43937 | 37042 ft | 468 kts | 22° |
| 2026-05-07 10:14 | 53.37931 | 14.48365 | 37053 ft | 468 kts | 24° |
| 2026-05-07 10:15 | 53.43848 | 14.52891 | 37050 ft | 467 kts | 24° |
| 2026-05-07 10:15 | 53.49792 | 14.57316 | 37050 ft | 467 kts | 23° |
| 2026-05-07 10:16 | 53.55707 | 14.61643 | 37045 ft | 467 kts | 22° |
| 2026-05-07 10:16 | 53.61658 | 14.66011 | 37049 ft | 467 kts | 22° |
| 2026-05-07 10:17 | 53.67599 | 14.70422 | 37047 ft | 466 kts | 23° |
| 2026-05-07 10:17 | 53.73533 | 14.74843 | 37015 ft | 467 kts | 23° |
| 2026-05-07 10:18 | 53.79483 | 14.79276 | 37017 ft | 468 kts | 23° |
| 2026-05-07 10:18 | 53.85440 | 14.83736 | 37037 ft | 468 kts | 22° |
| 2026-05-07 10:19 | 53.91395 | 14.88218 | 37041 ft | 468 kts | 22° |
| 2026-05-07 10:19 | 53.97348 | 14.92694 | 37050 ft | 468 kts | 22° |
| 2026-05-07 10:20 | 54.02292 | 14.96429 | 37056 ft | 468 kts | 23° |
| 2026-05-07 10:20 | 54.08237 | 15.00945 | 37060 ft | 468 kts | 22° |
| 2026-05-07 10:21 | 54.14283 | 15.05023 | 37064 ft | 467 kts | 18° |
| 2026-05-07 10:21 | 54.21428 | 15.09159 | 37069 ft | 466 kts | 16° |
| 2026-05-07 10:22 | 54.26623 | 15.11909 | 37068 ft | 466 kts | 15° |
| 2026-05-07 10:22 | 54.32831 | 15.15149 | 37090 ft | 467 kts | 15° |
| 2026-05-07 10:23 | 54.39036 | 15.18459 | 37085 ft | 467 kts | 15° |
| 2026-05-07 10:23 | 54.45239 | 15.21817 | 37080 ft | 467 kts | 15° |
| 2026-05-07 10:24 | 54.51396 | 15.25158 | 37078 ft | 467 kts | 15° |
| 2026-05-07 10:24 | 54.57594 | 15.28548 | 37085 ft | 467 kts | 15° |
| 2026-05-07 10:25 | 54.63794 | 15.31924 | 37077 ft | 467 kts | 15° |
| 2026-05-07 10:25 | 54.69993 | 15.35315 | 37072 ft | 467 kts | 15° |
| 2026-05-07 10:26 | 54.76192 | 15.38713 | 37082 ft | 468 kts | 15° |
| 2026-05-07 10:26 | 54.82399 | 15.42124 | 37086 ft | 468 kts | 15° |
| 2026-05-07 10:27 | 54.88607 | 15.45554 | 37091 ft | 468 kts | 15° |
| 2026-05-07 10:27 | 54.94812 | 15.49016 | 37095 ft | 468 kts | 15° |
| 2026-05-07 10:28 | 55.00977 | 15.52456 | 37083 ft | 468 kts | 15° |
| 2026-05-07 10:28 | 55.07224 | 15.55924 | 37081 ft | 468 kts | 15° |
| 2026-05-07 10:29 | 55.13386 | 15.59362 | 37080 ft | 468 kts | 15° |
| 2026-05-07 10:29 | 55.19586 | 15.62852 | 37082 ft | 468 kts | 15° |
| 2026-05-07 10:30 | 55.28888 | 15.68088 | 37082 ft | 468 kts | 15° |
| 2026-05-07 10:30 | 55.35084 | 15.71606 | 37099 ft | 468 kts | 15° |
| 2026-05-07 10:31 | 55.41276 | 15.75129 | 37090 ft | 468 kts | 15° |
| 2026-05-07 10:31 | 55.47465 | 15.78658 | 37089 ft | 467 kts | 15° |
| 2026-05-07 10:32 | 55.53649 | 15.82201 | 37086 ft | 467 kts | 15° |
| 2026-05-07 10:32 | 55.59830 | 15.85746 | 37093 ft | 467 kts | 15° |
| 2026-05-07 10:33 | 55.66010 | 15.89293 | 37089 ft | 467 kts | 15° |
| 2026-05-07 10:33 | 55.72185 | 15.92854 | 37088 ft | 467 kts | 15° |
| 2026-05-07 10:34 | 55.78354 | 15.96445 | 37082 ft | 466 kts | 15° |
| 2026-05-07 10:34 | 55.84482 | 16.00016 | 37096 ft | 466 kts | 15° |
| 2026-05-07 10:35 | 55.90653 | 16.03603 | 37089 ft | 466 kts | 15° |
| 2026-05-07 10:35 | 55.96818 | 16.07214 | 37087 ft | 466 kts | 15° |
| 2026-05-07 10:36 | 56.02985 | 16.10841 | 37089 ft | 467 kts | 15° |
| 2026-05-07 10:36 | 56.09149 | 16.14479 | 37107 ft | 466 kts | 15° |
| 2026-05-07 10:37 | 56.15314 | 16.18124 | 37096 ft | 466 kts | 15° |
| 2026-05-07 10:37 | 56.21472 | 16.21773 | 37092 ft | 466 kts | 15° |
| 2026-05-07 10:38 | 56.27629 | 16.25440 | 37089 ft | 466 kts | 15° |
| 2026-05-07 10:38 | 56.33784 | 16.29127 | 37098 ft | 466 kts | 15° |
| 2026-05-07 10:39 | 56.39943 | 16.32823 | 37096 ft | 466 kts | 15° |
| 2026-05-07 10:39 | 56.46102 | 16.36506 | 37094 ft | 466 kts | 15° |
| 2026-05-07 10:40 | 56.52260 | 16.40215 | 37093 ft | 467 kts | 15° |
| 2026-05-07 10:40 | 56.58415 | 16.43963 | 37111 ft | 467 kts | 15° |
| 2026-05-07 10:41 | 56.64571 | 16.47712 | 37101 ft | 467 kts | 15° |
| 2026-05-07 10:41 | 56.70687 | 16.51440 | 37098 ft | 467 kts | 15° |
| 2026-05-07 10:42 | 56.76846 | 16.55204 | 37114 ft | 467 kts | 15° |
| 2026-05-07 10:42 | 56.82995 | 16.58979 | 37125 ft | 466 kts | 15° |
| 2026-05-07 10:43 | 56.89134 | 16.62765 | 37112 ft | 466 kts | 15° |
| 2026-05-07 10:43 | 56.95270 | 16.66552 | 37107 ft | 465 kts | 15° |
| 2026-05-07 10:44 | 57.01404 | 16.70358 | 37100 ft | 465 kts | 15° |
| 2026-05-07 10:44 | 57.07536 | 16.74180 | 37100 ft | 465 kts | 15° |
| 2026-05-07 10:45 | 57.13666 | 16.78020 | 37119 ft | 465 kts | 15° |
| 2026-05-07 10:45 | 57.19793 | 16.81858 | 37111 ft | 465 kts | 15° |
| 2026-05-07 10:46 | 57.25924 | 16.85705 | 37106 ft | 465 kts | 15° |
| 2026-05-07 10:46 | 57.32051 | 16.89574 | 37104 ft | 465 kts | 15° |
| 2026-05-07 10:47 | 57.38177 | 16.93465 | 37125 ft | 465 kts | 15° |
| 2026-05-07 10:47 | 57.44299 | 16.97374 | 37115 ft | 465 kts | 15° |
| 2026-05-07 10:48 | 57.50419 | 17.01287 | 37113 ft | 465 kts | 15° |
| 2026-05-07 10:48 | 57.56542 | 17.05186 | 37111 ft | 465 kts | 15° |
| 2026-05-07 10:49 | 57.62663 | 17.09105 | 36870 ft | 465 kts | 15° |
| 2026-05-07 10:49 | 57.65678 | 17.11046 | 36619 ft | 464 kts | 15° |
| 2026-05-07 10:49 | 57.68725 | 17.13014 | 36365 ft | 463 kts | 15° |
| 2026-05-07 10:50 | 57.71811 | 17.15017 | 36108 ft | 463 kts | 15° |
| 2026-05-07 10:50 | 57.74852 | 17.16997 | 35860 ft | 463 kts | 15° |
| 2026-05-07 10:50 | 57.77849 | 17.18950 | 35619 ft | 462 kts | 15° |
| 2026-05-07 10:50 | 57.80873 | 17.20917 | 35373 ft | 459 kts | 15° |
| 2026-05-07 10:51 | 57.83888 | 17.22880 | 35133 ft | 457 kts | 15° |
| 2026-05-07 10:51 | 57.86884 | 17.24833 | 34915 ft | 454 kts | 14° |
| 2026-05-07 10:51 | 57.89856 | 17.26775 | 34422 ft | 452 kts | 14° |
| 2026-05-07 10:51 | 57.92821 | 17.28714 | 33813 ft | 450 kts | 14° |
| 2026-05-07 10:52 | 57.95769 | 17.30649 | 33252 ft | 447 kts | 14° |
| 2026-05-07 10:52 | 57.98691 | 17.32569 | 32714 ft | 443 kts | 14° |
| 2026-05-07 10:52 | 58.01591 | 17.34473 | 32168 ft | 440 kts | 14° |
| 2026-05-07 10:52 | 58.04470 | 17.36367 | 31636 ft | 436 kts | 14° |
| 2026-05-07 10:53 | 58.07323 | 17.38247 | 31109 ft | 433 kts | 14° |
| 2026-05-07 10:53 | 58.10153 | 17.40118 | 30592 ft | 430 kts | 14° |
| 2026-05-07 10:53 | 58.12964 | 17.41985 | 30118 ft | 426 kts | 14° |
| 2026-05-07 10:53 | 58.15752 | 17.43841 | 29543 ft | 423 kts | 14° |
| 2026-05-07 10:54 | 58.18507 | 17.45678 | 29071 ft | 417 kts | 14° |
| 2026-05-07 10:54 | 58.21223 | 17.47490 | 28606 ft | 411 kts | 14° |
| 2026-05-07 10:54 | 58.23904 | 17.49280 | 28146 ft | 406 kts | 14° |
| 2026-05-07 10:54 | 58.26549 | 17.51049 | 27689 ft | 401 kts | 14° |
| 2026-05-07 10:55 | 58.29165 | 17.52801 | 27232 ft | 396 kts | 14° |
| 2026-05-07 10:55 | 58.31753 | 17.54537 | 26774 ft | 392 kts | 14° |
| 2026-05-07 10:55 | 58.34316 | 17.56259 | 26311 ft | 389 kts | 14° |
| 2026-05-07 10:55 | 58.36866 | 17.57973 | 25846 ft | 386 kts | 14° |
| 2026-05-07 10:56 | 58.39380 | 17.59665 | 25388 ft | 384 kts | 13° |
| 2026-05-07 10:56 | 58.41895 | 17.61361 | 24885 ft | 383 kts | 14° |
| 2026-05-07 10:56 | 58.44398 | 17.63054 | 24381 ft | 381 kts | 14° |
| 2026-05-07 10:56 | 58.46896 | 17.64744 | 23885 ft | 380 kts | 14° |
| 2026-05-07 10:57 | 58.49354 | 17.66347 | 23534 ft | 373 kts | 11° |
| 2026-05-07 10:57 | 58.51795 | 17.67760 | 23444 ft | 364 kts | 10° |
| 2026-05-07 10:57 | 58.54240 | 17.69133 | 23343 ft | 368 kts | 9° |
| 2026-05-07 10:57 | 58.56703 | 17.70428 | 23061 ft | 366 kts | 9° |
| 2026-05-07 10:58 | 58.59162 | 17.71666 | 22788 ft | 365 kts | 8° |
| 2026-05-07 10:58 | 58.61613 | 17.72877 | 22511 ft | 363 kts | 8° |
| 2026-05-07 10:58 | 58.64050 | 17.74080 | 22235 ft | 361 kts | 8° |
| 2026-05-07 10:58 | 58.66477 | 17.75282 | 21990 ft | 360 kts | 8° |
| 2026-05-07 10:59 | 58.68898 | 17.76489 | 21720 ft | 359 kts | 8° |
| 2026-05-07 10:59 | 58.71307 | 17.77701 | 21455 ft | 357 kts | 9° |
| 2026-05-07 10:59 | 58.73707 | 17.78919 | 21192 ft | 356 kts | 9° |
| 2026-05-07 10:59 | 58.76093 | 17.80137 | 20931 ft | 354 kts | 9° |
| 2026-05-07 11:00 | 58.78467 | 17.81349 | 20677 ft | 352 kts | 9° |
| 2026-05-07 11:00 | 58.80833 | 17.82558 | 20415 ft | 351 kts | 9° |
| 2026-05-07 11:00 | 58.83187 | 17.83764 | 20158 ft | 349 kts | 9° |
| 2026-05-07 11:00 | 58.85533 | 17.84971 | 19905 ft | 348 kts | 9° |
| 2026-05-07 11:01 | 58.87867 | 17.86171 | 19656 ft | 346 kts | 9° |
| 2026-05-07 11:01 | 58.90189 | 17.87364 | 19410 ft | 345 kts | 9° |
| 2026-05-07 11:01 | 58.92501 | 17.88551 | 19113 ft | 342 kts | 9° |
| 2026-05-07 11:01 | 58.94795 | 17.89727 | 18760 ft | 340 kts | 9° |
| 2026-05-07 11:02 | 58.97072 | 17.90899 | 18396 ft | 338 kts | 9° |
| 2026-05-07 11:02 | 58.99305 | 17.92057 | 17990 ft | 336 kts | 9° |
| 2026-05-07 11:02 | 59.01553 | 17.93224 | 17607 ft | 333 kts | 9° |
| 2026-05-07 11:02 | 59.03786 | 17.94383 | 17225 ft | 331 kts | 9° |
| 2026-05-07 11:03 | 59.06004 | 17.95532 | 16860 ft | 329 kts | 9° |
| 2026-05-07 11:03 | 59.08206 | 17.96671 | 16498 ft | 326 kts | 9° |
| 2026-05-07 11:03 | 59.10394 | 17.97803 | 16148 ft | 324 kts | 9° |
| 2026-05-07 11:03 | 59.12566 | 17.98928 | 15814 ft | 322 kts | 10° |
| 2026-05-07 11:04 | 59.14725 | 18.00052 | 15480 ft | 320 kts | 10° |
| 2026-05-07 11:04 | 59.16871 | 18.01170 | 15138 ft | 318 kts | 10° |
| 2026-05-07 11:04 | 59.19004 | 18.02282 | 14807 ft | 316 kts | 10° |
| 2026-05-07 11:04 | 59.21123 | 18.03387 | 14502 ft | 315 kts | 9° |
| 2026-05-07 11:05 | 59.23237 | 18.04489 | 14166 ft | 314 kts | 9° |
| 2026-05-07 11:05 | 59.25341 | 18.05591 | 13831 ft | 312 kts | 9° |
| 2026-05-07 11:05 | 59.27435 | 18.06695 | 13477 ft | 311 kts | 10° |
| 2026-05-07 11:05 | 59.29516 | 18.07794 | 13123 ft | 309 kts | 10° |
| 2026-05-07 11:06 | 59.31584 | 18.08884 | 12783 ft | 307 kts | 10° |
| 2026-05-07 11:06 | 59.33638 | 18.09963 | 12434 ft | 305 kts | 10° |
| 2026-05-07 11:06 | 59.35679 | 18.11039 | 12089 ft | 303 kts | 10° |
| 2026-05-07 11:06 | 59.37705 | 18.12110 | 11753 ft | 301 kts | 11° |
| 2026-05-07 11:07 | 59.39719 | 18.13179 | 11399 ft | 299 kts | 11° |
| 2026-05-07 11:07 | 59.41721 | 18.14243 | 11047 ft | 297 kts | 11° |
| 2026-05-07 11:07 | 59.43710 | 18.15298 | 10693 ft | 295 kts | 11° |
| 2026-05-07 11:07 | 59.45686 | 18.16347 | 10348 ft | 293 kts | 11° |
| 2026-05-07 11:08 | 59.47648 | 18.17390 | 10004 ft | 291 kts | 11° |
| 2026-05-07 11:08 | 59.49592 | 18.18424 | 9663 ft | 288 kts | 11° |
| 2026-05-07 11:08 | 59.51517 | 18.19446 | 9289 ft | 285 kts | 11° |
| 2026-05-07 11:08 | 59.53426 | 18.20442 | 8920 ft | 283 kts | 10° |
| 2026-05-07 11:09 | 59.55336 | 18.21261 | 8552 ft | 280 kts | 8° |
| 2026-05-07 11:09 | 59.57237 | 18.21951 | 8325 ft | 277 kts | 6° |
| 2026-05-07 11:09 | 59.59145 | 18.22428 | 8196 ft | 276 kts | 3° |
| 2026-05-07 11:09 | 59.61053 | 18.22826 | 8062 ft | 276 kts | 3° |
| 2026-05-07 11:10 | 59.62958 | 18.23213 | 8057 ft | 275 kts | 3° |
| 2026-05-07 11:10 | 59.64862 | 18.23599 | 8060 ft | 275 kts | 3° |
| 2026-05-07 11:10 | 59.66764 | 18.23985 | 8056 ft | 275 kts | 3° |
| 2026-05-07 11:10 | 59.68671 | 18.24374 | 8061 ft | 276 kts | 3° |
| 2026-05-07 11:11 | 59.70576 | 18.24764 | 7963 ft | 273 kts | 3° |
| 2026-05-07 11:11 | 59.72460 | 18.25144 | 7569 ft | 272 kts | 3° |
| 2026-05-07 11:11 | 59.74336 | 18.25507 | 7170 ft | 270 kts | 3° |
| 2026-05-07 11:11 | 59.76178 | 18.25857 | 6907 ft | 257 kts | 2° |
| 2026-05-07 11:12 | 59.77854 | 18.25737 | 6687 ft | 237 kts | 349° |
| 2026-05-07 11:12 | 59.79466 | 18.25268 | 6274 ft | 232 kts | 348° |
| 2026-05-07 11:12 | 59.81056 | 18.24753 | 5800 ft | 231 kts | 348° |
| 2026-05-07 11:12 | 59.82618 | 18.24080 | 5290 ft | 228 kts | 334° |
| 2026-05-07 11:13 | 59.83816 | 18.22161 | 4825 ft | 221 kts | 300° |
| 2026-05-07 11:13 | 59.84198 | 18.20288 | 4549 ft | 215 kts | 277° |
| 2026-05-07 11:13 | 59.84283 | 18.17318 | 4075 ft | 220 kts | 269° |
| 2026-05-07 11:13 | 59.84259 | 18.14237 | 3710 ft | 224 kts | 268° |
| 2026-05-07 11:14 | 59.84226 | 18.11142 | 3395 ft | 224 kts | 268° |
| 2026-05-07 11:14 | 59.84178 | 18.08053 | 3153 ft | 221 kts | 262° |
| 2026-05-07 11:14 | 59.83626 | 18.05255 | 2851 ft | 217 kts | 234° |
| 2026-05-07 11:14 | 59.82577 | 18.03092 | 2550 ft | 219 kts | 215° |
| 2026-05-07 11:15 | 59.81208 | 18.01862 | 2488 ft | 212 kts | 195° |
| 2026-05-07 11:15 | 59.79837 | 18.01351 | 2507 ft | 191 kts | 192° |
| 2026-05-07 11:15 | 59.78572 | 18.00880 | 2518 ft | 181 kts | 189° |
| 2026-05-07 11:15 | 59.77334 | 18.00427 | 2529 ft | 181 kts | 189° |
| 2026-05-07 11:16 | 59.76119 | 17.99981 | 2372 ft | 179 kts | 189° |
| 2026-05-07 11:16 | 59.74918 | 17.99544 | 2153 ft | 166 kts | 189° |
| 2026-05-07 11:16 | 59.73833 | 17.99146 | 1939 ft | 150 kts | 189° |
| 2026-05-07 11:16 | 59.72887 | 17.98801 | 1765 ft | 134 kts | 189° |
| 2026-05-07 11:17 | 59.71990 | 17.98474 | 1571 ft | 129 kts | 189° |
| 2026-05-07 11:17 | 59.71125 | 17.98158 | 1400 ft | 126 kts | 188° |
| 2026-05-07 11:17 | 59.70264 | 17.97845 | 1233 ft | 125 kts | 188° |
| 2026-05-07 11:17 | 59.69410 | 17.97534 | 1048 ft | 125 kts | 188° |
| 2026-05-07 11:18 | 59.68553 | 17.97222 | 876 ft | 126 kts | 189° |
| 2026-05-07 11:18 | 59.67690 | 17.96909 | 713 ft | 126 kts | 191° |
| 2026-05-07 11:18 | 59.66822 | 17.96593 | 555 ft | 127 kts | 191° |
| 2026-05-07 11:18 | 59.65955 | 17.96278 | 377 ft | 127 kts | 191° |
| 2026-05-07 11:19 | 59.65094 | 17.95970 | 210 ft | 125 kts | 191° |
| 2026-05-07 11:19 | 59.64285 | 17.95666 | 145 ft | 96 kts | 189° |
| 2026-05-07 11:19 | 59.63826 | 17.95506 | 145 ft | 54 kts | 190° |
| 2026-05-07 11:19 | 59.63528 | 17.95396 | 144 ft | 35 kts | 192° |
| 2026-05-07 11:20 | 59.63353 | 17.95222 | 140 ft | 21 kts | 219° |
| 2026-05-07 11:20 | 59.63286 | 17.95112 | 139 ft | 0 kts | 220° |
| 2026-05-07 11:21 | 59.63265 | 17.95074 | 138 ft | 2 kts | 224° |
| 2026-05-07 11:21 | 59.63264 | 17.95074 | 138 ft | 0 kts | 224° |
| 2026-05-07 11:22 | 59.63243 | 17.95002 | 138 ft | 14 kts | 257° |
| 2026-05-07 11:22 | 59.63304 | 17.94910 | 138 ft | 13 kts | 8° |
| 2026-05-07 11:22 | 59.63387 | 17.94940 | 138 ft | 12 kts | 10° |
| 2026-05-07 11:22 | 59.63493 | 17.94977 | 138 ft | 21 kts | 10° |
| 2026-05-07 11:23 | 59.63653 | 17.95034 | 138 ft | 24 kts | 10° |
| 2026-05-07 11:23 | 59.63827 | 17.95097 | 138 ft | 27 kts | 11° |
| 2026-05-07 11:23 | 59.64003 | 17.95161 | 138 ft | 23 kts | 10° |
| 2026-05-07 11:23 | 59.64162 | 17.95219 | 138 ft | 24 kts | 10° |
| 2026-05-07 11:24 | 59.64323 | 17.95277 | 138 ft | 21 kts | 11° |
| 2026-05-07 11:24 | 59.64469 | 17.95330 | 138 ft | 22 kts | 10° |
| 2026-05-07 11:24 | 59.64623 | 17.95387 | 138 ft | 21 kts | 11° |
| 2026-05-07 11:24 | 59.64763 | 17.95438 | 138 ft | 20 kts | 10° |
| 2026-05-07 11:25 | 59.64900 | 17.95487 | 138 ft | 17 kts | 11° |
| 2026-05-07 11:25 | 59.65027 | 17.95513 | 138 ft | 22 kts | 355° |
| 2026-05-07 11:25 | 59.65181 | 17.95442 | 138 ft | 22 kts | 345° |
| 2026-05-07 11:25 | 59.65337 | 17.95362 | 138 ft | 24 kts | 345° |
| 2026-05-07 11:26 | 59.65488 | 17.95282 | 138 ft | 22 kts | 345° |
| 2026-05-07 11:26 | 59.65637 | 17.95201 | 138 ft | 22 kts | 345° |
| 2026-05-07 11:26 | 59.65742 | 17.95097 | 138 ft | 17 kts | 302° |
| 2026-05-07 11:26 | 59.65730 | 17.94857 | 138 ft | 19 kts | 256° |
| 2026-05-07 11:27 | 59.65694 | 17.94582 | 138 ft | 22 kts | 256° |
| 2026-05-07 11:27 | 59.65654 | 17.94279 | 138 ft | 20 kts | 256° |
| 2026-05-07 11:27 | 59.65619 | 17.93998 | 138 ft | 22 kts | 256° |
| 2026-05-07 11:27 | 59.65581 | 17.93693 | 138 ft | 20 kts | 255° |
| 2026-05-07 11:28 | 59.65544 | 17.93410 | 138 ft | 20 kts | 256° |
| 2026-05-07 11:28 | 59.65511 | 17.93151 | 138 ft | 20 kts | 256° |
| 2026-05-07 11:28 | 59.65472 | 17.92963 | 138 ft | 12 kts | 213° |
| 2026-05-07 11:28 | 59.65436 | 17.93037 | 138 ft | 8 kts | 99° |
| 2026-05-07 11:29 | 59.65412 | 17.93046 | 138 ft | 3 kts | 185° |
| 2026-05-07 11:29 | 59.65398 | 17.93041 | 138 ft | 1 kts | 190° |
| 2026-05-07 11:29 | 59.65393 | 17.93039 | 138 ft | 0 kts | 190° |
| 2026-05-07 11:29 | 59.65388 | 17.93038 | 138 ft | 0 kts | 190° |
| 2026-05-07 11:30 | 59.65387 | 17.93037 | 138 ft | 0 kts | 190° |